Time;durP1;ratioP1;P1;durP2;ratioP2;P2;SDS_P1;SDS_P2;PMS_P1;PMS_P2;Temp;Humidity;BMP_temperature;BMP_pressure;BME280_temperature;BME280_humidity;BME280_pressure;Samples;Min_cycle;Max_cycle;Signal;HPM_P1;HPM_P2
2022/05/24 00:02:12;;;;;;;8.75;3.72;;;;;;;12.10;81.60;100568.68;1838428;78;21126;-61
2022/05/24 00:04:40;;;;;;;6.95;3.77;;;;;;;12.10;81.70;100568.68;1835450;78;21102;-62
2022/05/24 00:07:09;;;;;;;5.22;3.20;;;;;;;12.10;81.70;100572.64;1835623;78;21113;-61
2022/05/24 00:09:38;;;;;;;6.78;3.50;;;;;;;12.08;81.87;100567.42;1816523;77;21164;-68
2022/05/24 00:12:08;;;;;;;3.12;1.67;;;;;;;12.09;81.72;100567.80;1835592;77;21470;-65
2022/05/24 00:17:23;;;;;;;5.10;2.33;;;;;;;12.05;81.83;100568.04;1835614;78;21034;-65
2022/05/24 00:19:52;;;;;;;3.40;2.10;;;;;;;12.04;81.88;100567.16;1832732;77;21548;-66
2022/05/24 00:22:21;;;;;;;3.50;2.70;;;;;;;12.01;81.99;100561.17;1803960;79;21078;-64
2022/05/24 00:24:50;;;;;;;4.90;3.17;;;;;;;11.98;82.08;100564.83;1803934;79;21090;-63
2022/05/24 00:27:19;;;;;;;3.95;2.60;;;;;;;11.95;82.18;100569.80;1823802;78;21157;-68
2022/05/24 00:29:47;;;;;;;5.50;3.77;;;;;;;11.92;82.33;100569.08;1835359;78;21059;-68
2022/05/24 00:32:16;;;;;;;8.35;3.00;;;;;;;11.90;82.23;100561.71;1835494;78;21059;-67
2022/05/24 00:34:44;;;;;;;5.47;2.92;;;;;;;11.91;82.39;100566.04;1835530;78;21051;-67
2022/05/24 00:37:13;;;;;;;3.67;2.55;;;;;;;11.89;82.49;100570.03;1835528;78;21058;-68
2022/05/24 00:39:42;;;;;;;3.95;2.65;;;;;;;11.87;82.30;100561.81;1817310;78;21129;-63
2022/05/24 00:42:13;;;;;;;5.55;2.55;;;;;;;11.86;82.25;100565.36;1804023;79;21177;-64
2022/05/24 00:44:45;;;;;;;2.47;1.60;;;;;;;11.85;82.07;100567.62;1803919;79;21188;-63
2022/05/24 00:47:34;;;;;;;4.20;1.77;;;;;;;11.84;82.03;100566.78;1804166;79;21591;-63
2022/05/24 00:50:09;;;;;;;4.83;2.15;;;;;;;11.84;81.84;100568.10;1803940;79;21071;-62
2022/05/24 00:52:58;;;;;;;3.08;2.30;;;;;;;11.83;81.68;100565.53;1803846;79;21153;-62
2022/05/24 00:55:29;;;;;;;7.47;2.47;;;;;;;11.83;81.64;100573.44;1803983;79;21141;-62
2022/05/24 00:58:19;;;;;;;4.10;2.35;;;;;;;11.82;81.52;100572.56;1803857;79;21091;-62
2022/05/24 01:00:47;;;;;;;11.53;2.10;;;;;;;11.82;81.65;100570.40;1803909;79;21039;-66
2022/05/24 01:03:16;;;;;;;2.80;2.05;;;;;;;11.80;81.94;100575.74;1846881;76;21146;-64
2022/05/24 01:05:46;;;;;;;4.62;1.95;;;;;;;11.79;82.02;100571.41;1863748;77;21077;-62
2022/05/24 01:08:15;;;;;;;2.92;2.12;;;;;;;11.78;81.97;100569.69;1857369;77;21054;-62
2022/05/24 01:10:48;;;;;;;6.15;2.22;;;;;;;11.77;82.12;100574.59;1841188;77;21167;-66
2022/05/24 01:13:22;;;;;;;4.33;2.80;;;;;;;11.78;82.15;100574.96;1840876;78;21482;-64
2022/05/24 01:15:51;;;;;;;5.83;2.80;;;;;;;11.79;81.90;100577.53;1840702;78;21148;-62
2022/05/24 01:18:21;;;;;;;4.53;2.42;;;;;;;11.77;82.36;100576.75;1840856;78;21055;-61
2022/05/24 01:20:54;;;;;;;4.45;2.60;;;;;;;11.78;82.25;100574.96;1826343;77;21516;-65
2022/05/24 01:24:00;;;;;;;4.75;2.80;;;;;;;11.78;82.19;100576.28;1841463;76;21034;-65
2022/05/24 01:26:50;;;;;;;6.30;3.10;;;;;;;11.77;82.40;100578.55;1839699;78;21140;-62
2022/05/24 01:29:22;;;;;;;4.92;2.55;;;;;;;11.76;82.56;100574.18;1840759;77;21073;-60
2022/05/24 01:37:28;;;;;;;3.55;2.17;;;;;;;11.74;82.96;100581.31;1796579;80;21037;-61
2022/05/24 01:39:59;;;;;;;3.42;2.22;;;;;;;11.72;82.98;100580.06;1760825;81;21579;-62
2022/05/24 01:42:29;;;;;;;4.92;1.75;;;;;;;11.70;82.98;100579.75;1790767;80;21156;-62
2022/05/24 01:45:07;;;;;;;2.95;1.95;;;;;;;11.67;83.06;100582.52;1790617;80;21035;-61
2022/05/24 01:47:36;;;;;;;4.92;1.70;;;;;;;11.67;82.98;100584.69;1796599;80;21528;-60
2022/05/24 01:50:08;;;;;;;3.95;1.80;;;;;;;11.65;83.06;100577.31;1762336;81;21511;-60
2022/05/24 01:52:55;;;;;;;3.33;2.02;;;;;;;11.63;83.53;100577.00;1789453;80;21043;-60
2022/05/24 01:55:38;;;;;;;4.75;1.82;;;;;;;11.62;83.44;100581.87;1790695;79;21133;-60
2022/05/24 01:58:10;;;;;;;3.17;1.80;;;;;;;11.62;83.31;100585.39;1790809;79;21051;-61
2022/05/24 02:00:40;;;;;;;2.62;1.92;;;;;;;11.61;83.20;100588.09;1790910;80;21191;-62
2022/05/24 02:03:10;;;;;;;4.85;2.05;;;;;;;11.60;83.11;100585.92;1758851;81;21583;-63
2022/05/24 02:05:42;;;;;;;4.67;2.05;;;;;;;11.63;83.12;100587.55;1749957;80;21076;-63
2022/05/24 02:08:12;;;;;;;6.78;2.30;;;;;;;11.61;83.08;100591.57;1779696;81;21474;-63
2022/05/24 02:10:47;;;;;;;2.50;1.70;;;;;;;11.61;82.99;100596.84;1781510;79;21150;-62
2022/05/24 02:13:18;;;;;;;4.05;2.08;;;;;;;11.61;83.13;100590.73;1779603;80;21047;-62
2022/05/24 02:15:50;;;;;;;4.90;1.90;;;;;;;11.61;83.31;100592.05;1779697;80;21557;-62
2022/05/24 02:18:21;;;;;;;4.40;2.45;;;;;;;11.59;83.39;100594.27;1779631;81;21070;-63
2022/05/24 02:20:50;;;;;;;5.08;2.60;;;;;;;11.59;83.41;100599.55;1779628;81;21520;-62
2022/05/24 02:23:20;;;;;;;2.90;2.17;;;;;;;11.62;83.41;100605.16;1779743;81;21082;-62
2022/05/24 02:25:52;;;;;;;3.67;2.72;;;;;;;11.65;83.40;100610.75;1779924;81;21066;-63
2022/05/24 02:28:23;;;;;;;3.50;2.02;;;;;;;11.66;83.58;100615.11;1779070;80;21094;-63
2022/05/24 02:30:55;;;;;;;3.60;2.65;;;;;;;11.69;83.59;100622.86;1779544;79;21255;-63
2022/05/24 02:33:24;;;;;;;5.37;2.75;;;;;;;11.69;83.41;100630.34;1779306;80;21518;-63
2022/05/24 02:35:53;;;;;;;5.10;2.22;;;;;;;11.71;83.18;100631.56;1779777;81;21518;-63
2022/05/24 02:38:22;;;;;;;2.92;1.60;;;;;;;11.71;83.17;100632.88;1779654;81;21533;-63
2022/05/24 02:43:39;;;;;;;2.42;1.90;;;;;;;11.73;82.88;100634.54;1779754;81;21058;-61
2022/05/24 02:46:08;;;;;;;4.60;2.58;;;;;;;11.76;82.61;100644.08;1779677;81;21458;-61
2022/05/24 02:48:37;;;;;;;4.95;1.80;;;;;;;11.77;82.50;100645.81;1779605;81;21086;-61
2022/05/24 02:51:10;;;;;;;1.98;1.22;;;;;;;11.77;82.29;100640.06;1779648;81;21082;-61
2022/05/24 02:53:42;;;;;;;2.77;1.55;;;;;;;11.79;82.08;100642.64;1779535;81;21082;-61
2022/05/24 02:56:11;;;;;;;2.20;1.80;;;;;;;11.82;81.97;100650.39;1779803;81;21065;-61
2022/05/24 02:58:41;;;;;;;3.17;1.87;;;;;;;11.82;81.81;100645.11;1779626;81;21063;-61
2022/05/24 03:01:21;;;;;;;4.12;1.67;;;;;;;11.82;81.70;100645.11;1779681;81;21521;-60
2022/05/24 03:03:52;;;;;;;1.80;1.65;;;;;;;11.84;81.58;100645.92;1783017;80;21093;-61
2022/05/24 03:06:23;;;;;;;1.80;1.70;;;;;;;11.87;81.49;100648.41;1790622;80;21211;-60
2022/05/24 03:14:26;;;;;;;5.78;3.83;;;;;;;11.92;81.56;100654.36;1790579;80;21103;-61
2022/05/24 03:16:56;;;;;;;5.92;3.65;;;;;;;11.95;81.43;100654.23;1790698;80;21490;-60
2022/05/24 03:19:25;;;;;;;5.58;3.60;;;;;;;11.97;81.34;100651.06;1790691;80;21672;-61
2022/05/24 03:21:54;;;;;;;7.87;4.08;;;;;;;12.00;81.31;100653.16;1790723;80;21076;-60
2022/05/24 03:24:22;;;;;;;5.50;3.50;;;;;;;12.00;81.57;100654.48;1790651;80;21043;-60
2022/05/24 03:26:51;;;;;;;9.95;3.65;;;;;;;12.01;81.71;100658.38;1790607;80;21104;-61
2022/05/24 03:29:20;;;;;;;5.47;3.05;;;;;;;12.02;81.65;100652.14;1790638;80;21491;-60
2022/05/24 03:31:48;;;;;;;3.77;2.20;;;;;;;12.05;81.68;100653.80;1790684;80;21063;-60
2022/05/24 03:34:17;;;;;;;2.67;1.85;;;;;;;12.05;81.88;100648.06;1790629;80;21091;-61
2022/05/24 03:36:46;;;;;;;3.65;1.40;;;;;;;12.07;82.04;100649.31;1790818;80;21059;-61
2022/05/24 03:39:14;;;;;;;4.50;2.10;;;;;;;12.07;82.07;100651.95;1790701;80;21048;-61
2022/05/24 03:41:45;;;;;;;3.10;1.90;;;;;;;12.07;82.17;100653.27;1790694;80;21224;-61
2022/05/24 03:44:13;;;;;;;2.42;1.60;;;;;;;12.08;82.26;100653.64;1790842;80;21076;-61
2022/05/24 03:46:42;;;;;;;3.25;2.22;;;;;;;12.09;82.22;100648.30;1790685;80;21036;-60
2022/05/24 03:49:11;;;;;;;5.35;3.30;;;;;;;12.12;82.29;100656.55;1790694;80;21088;-60
2022/05/24 03:51:40;;;;;;;7.47;4.92;;;;;;;12.16;82.15;100651.52;1790697;80;21151;-60
2022/05/24 03:54:09;;;;;;;13.85;9.95;;;;;;;12.20;82.11;100650.91;1790657;80;21064;-60
2022/05/24 03:56:38;;;;;;;10.78;7.33;;;;;;;12.23;82.13;100650.30;1790733;80;21197;-60
2022/05/24 03:59:07;;;;;;;9.00;5.65;;;;;;;12.27;82.12;100650.54;1790601;80;21142;-60
2022/05/24 04:01:35;;;;;;;4.90;3.15;;;;;;;12.34;81.97;100650.64;1790685;80;21186;-60
2022/05/24 04:04:04;;;;;;;1.90;1.45;;;;;;;12.41;81.79;100650.34;1789512;80;21047;-61
2022/05/24 04:06:33;;;;;;;4.53;1.30;;;;;;;12.46;81.58;100656.27;1779574;80;21606;-61
2022/05/24 04:09:01;;;;;;;2.35;1.27;;;;;;;12.48;81.41;100655.25;1779472;81;21519;-61
2022/05/24 04:11:30;;;;;;;3.95;1.20;;;;;;;12.52;81.29;100660.80;1779577;81;21076;-60
2022/05/24 04:13:59;;;;;;;2.80;1.47;;;;;;;12.56;81.17;100665.47;1779619;81;21069;-63
2022/05/24 04:16:29;;;;;;;4.37;1.47;;;;;;;12.61;81.03;100659.47;1779600;80;21064;-63
2022/05/24 04:18:58;;;;;;;2.47;1.62;;;;;;;12.69;80.93;100665.25;1779578;81;21064;-65
2022/05/24 04:21:27;;;;;;;2.55;1.22;;;;;;;12.78;80.82;100662.62;1779624;81;21598;-62
2022/05/24 04:23:56;;;;;;;1.50;1.00;;;;;;;12.89;80.61;100667.36;1779582;80;21147;-62
2022/05/24 04:26:25;;;;;;;3.25;0.78;;;;;;;13.06;80.45;100672.67;1779608;81;21096;-62
2022/05/24 04:28:53;;;;;;;1.27;0.82;;;;;;;13.13;80.11;100670.11;1779696;81;21085;-62
2022/05/24 04:31:22;;;;;;;1.55;0.80;;;;;;;13.13;79.87;100673.19;1779596;80;21566;-63
2022/05/24 04:33:50;;;;;;;1.42;0.80;;;;;;;13.15;79.53;100672.68;1779618;81;21243;-62
2022/05/24 04:36:19;;;;;;;2.08;0.80;;;;;;;13.19;79.15;100672.91;1779598;81;21158;-60
2022/05/24 04:38:48;;;;;;;3.75;1.12;;;;;;;13.24;78.91;100672.65;1779814;81;21082;-60
2022/05/24 04:44:03;;;;;;;1.77;0.93;;;;;;;13.43;78.58;100684.04;1779565;81;21064;-61
2022/05/24 04:47:07;;;;;;;4.70;1.10;;;;;;;13.57;78.42;100681.13;1779721;81;21511;-61
2022/05/24 04:49:02;;;;;;;3.98;0.98;;;;;;;13.70;78.28;100688.80;1776319;81;21072;-62
2022/05/24 04:51:31;;;;;;;1.50;1.00;;;;;;;13.79;78.07;100689.64;1779736;81;21049;-61
2022/05/24 04:54:00;;;;;;;0.82;0.80;;;;;;;13.80;77.92;100694.01;1779728;81;21049;-62
2022/05/24 04:56:28;;;;;;;1.40;1.00;;;;;;;13.86;77.79;100698.12;1779635;81;21186;-63
2022/05/24 04:58:57;;;;;;;2.85;0.80;;;;;;;13.94;77.69;100701.67;1779697;81;21158;-62
2022/05/24 05:01:26;;;;;;;2.52;1.35;;;;;;;14.00;77.56;100706.62;1779709;81;21112;-63
2022/05/24 05:03:54;;;;;;;3.12;1.20;;;;;;;14.04;77.46;100701.09;1779716;81;21158;-61
2022/05/24 05:06:23;;;;;;;1.45;1.05;;;;;;;14.08;77.38;100703.11;1779830;80;21170;-62
2022/05/24 05:08:52;;;;;;;3.05;2.60;;;;;;;14.11;77.24;100705.61;1779733;80;21135;-62
2022/05/24 05:11:20;;;;;;;2.50;1.95;;;;;;;14.16;77.16;100707.51;1779645;81;21566;-61
2022/05/24 05:13:49;;;;;;;3.42;2.25;;;;;;;14.22;77.08;100701.90;1779719;81;21072;-63
2022/05/24 05:16:18;;;;;;;5.80;1.92;;;;;;;14.28;77.00;100708.17;1779721;81;21150;-64
2022/05/24 05:18:47;;;;;;;3.30;1.92;;;;;;;14.34;76.73;100714.92;1779811;81;21073;-62
2022/05/24 05:21:15;;;;;;;3.65;2.10;;;;;;;14.33;76.51;100711.03;1779800;81;21060;-62
2022/05/24 05:23:44;;;;;;;3.62;2.50;;;;;;;14.38;76.44;100711.63;1779596;81;21080;-64
2022/05/24 05:26:16;;;;;;;4.97;1.67;;;;;;;14.54;76.32;100711.17;1779709;81;21163;-63
2022/05/24 05:28:45;;;;;;;3.50;2.12;;;;;;;14.75;76.34;100709.59;1779821;81;21112;-63
2022/05/24 05:31:22;;;;;;;8.78;1.90;;;;;;;14.94;76.07;100708.94;1779703;81;21052;-63
2022/05/24 05:33:50;;;;;;;2.85;1.22;;;;;;;15.15;75.76;100715.27;1779548;81;21072;-63
2022/05/24 05:36:20;;;;;;;2.15;1.20;;;;;;;15.38;75.40;100713.89;1779588;81;21510;-63
2022/05/24 05:38:49;;;;;;;2.58;1.40;;;;;;;15.63;75.13;100710.63;1779717;81;21451;-63
2022/05/24 05:41:21;;;;;;;3.52;0.62;;;;;;;15.83;74.76;100711.61;1779712;81;21565;-62
2022/05/24 05:43:50;;;;;;;5.10;1.00;;;;;;;15.87;72.67;100711.44;1779861;81;21158;-61
2022/05/24 05:46:19;;;;;;;5.83;1.25;;;;;;;15.87;73.03;100706.97;1779775;81;21083;-63
2022/05/24 05:48:50;;;;;;;3.35;1.05;;;;;;;16.04;73.48;100709.91;1779436;80;21551;-64
2022/05/24 05:51:19;;;;;;;8.20;2.05;;;;;;;16.21;73.44;100708.39;1779732;81;21072;-65
2022/05/24 05:53:50;;;;;;;16.57;8.00;;;;;;;16.42;73.15;100714.61;1779517;80;21186;-64
2022/05/24 05:56:21;;;;;;;12.20;5.28;;;;;;;16.57;72.61;100716.27;1779701;81;21040;-64
2022/05/24 05:58:50;;;;;;;15.65;6.87;;;;;;;16.75;72.23;100711.58;1779726;81;21072;-63
2022/05/24 06:01:21;;;;;;;26.35;11.75;;;;;;;16.89;71.82;100711.17;1779588;81;21167;-63
2022/05/24 06:03:51;;;;;;;15.10;6.70;;;;;;;17.03;71.49;100715.59;1779884;81;21178;-62
2022/05/24 06:06:22;;;;;;;3.52;1.95;;;;;;;17.13;71.12;100712.67;1776821;80;21186;-62
2022/05/24 06:08:51;;;;;;;6.22;2.70;;;;;;;17.24;70.83;100719.45;1772040;80;21520;-57
2022/05/24 06:11:20;;;;;;;2.33;1.42;;;;;;;17.35;70.53;100714.28;1772126;81;21072;-58
2022/05/24 06:13:49;;;;;;;5.50;1.50;;;;;;;17.54;70.00;100715.69;1771896;81;21094;-59
2022/05/24 06:16:18;;;;;;;1.17;0.90;;;;;;;17.68;69.59;100720.89;1772015;81;21036;-59
2022/05/24 06:18:48;;;;;;;1.22;0.90;;;;;;;17.74;68.92;100716.95;1772286;81;21067;-59
2022/05/24 06:21:17;;;;;;;1.05;0.70;;;;;;;17.74;68.41;100719.61;1772048;80;21076;-59
2022/05/24 06:23:46;;;;;;;1.22;0.80;;;;;;;17.90;68.22;100720.77;1772164;81;21197;-63
2022/05/24 06:26:17;;;;;;;2.02;0.75;;;;;;;18.09;67.88;100719.86;1771978;81;21028;-63
2022/05/24 06:28:44;;;;;;;1.47;0.80;;;;;;;18.58;67.86;100722.13;1772044;81;21193;-63
2022/05/24 06:31:14;;;;;;;2.35;0.90;;;;;;;18.79;67.46;100718.34;1772244;81;21511;-63
2022/05/24 06:33:43;;;;;;;2.15;0.80;;;;;;;18.59;66.51;100723.84;1772006;79;21080;-60
2022/05/24 06:36:12;;;;;;;1.10;0.90;;;;;;;18.43;66.60;100725.91;1772117;81;21080;-60
2022/05/24 06:38:41;;;;;;;1.57;0.70;;;;;;;18.26;66.68;100727.10;1771985;81;21134;-62
2022/05/24 06:41:09;;;;;;;1.80;0.90;;;;;;;18.03;66.79;100728.27;1772133;81;21142;-62
2022/05/24 06:43:38;;;;;;;1.55;1.45;;;;;;;17.77;66.98;100735.87;1772021;81;21068;-61
2022/05/24 06:46:08;;;;;;;1.32;1.10;;;;;;;17.49;67.08;100735.11;1772132;81;21616;-61
2022/05/24 06:48:42;;;;;;;1.55;1.10;;;;;;;17.44;67.38;100739.40;1772110;81;21210;-62
2022/05/24 06:51:13;;;;;;;4.42;1.40;;;;;;;17.43;67.62;100735.50;1787374;77;21117;-59
2022/05/24 06:53:44;;;;;;;1.42;1.20;;;;;;;17.53;67.85;100735.27;1806329;79;21119;-61
2022/05/24 06:56:12;;;;;;;3.17;1.77;;;;;;;17.69;68.01;100734.59;1817879;79;21027;-61
2022/05/24 06:58:41;;;;;;;1.75;1.40;;;;;;;17.78;67.72;100734.90;1772505;79;21054;-61
2022/05/24 07:03:59;;;;;;;1.90;1.00;;;;;;;17.81;67.35;100746.68;1772092;81;21068;-61
2022/05/24 07:06:28;;;;;;;1.42;0.80;;;;;;;17.93;67.34;100743.20;1772741;79;21611;-61
2022/05/24 07:08:57;;;;;;;2.12;1.05;;;;;;;17.91;66.90;100737.98;1784912;79;21156;-61
2022/05/24 07:11:25;;;;;;;5.08;1.22;;;;;;;17.84;66.98;100747.32;1815176;79;21160;-62
2022/05/24 07:13:54;;;;;;;1.02;0.93;;;;;;;17.75;66.70;100749.29;1815200;79;21095;-62
2022/05/24 07:16:23;;;;;;;2.33;1.20;;;;;;;17.72;66.68;100750.82;1815095;79;21051;-61
2022/05/24 07:18:52;;;;;;;1.22;0.80;;;;;;;18.00;66.75;100751.14;1815293;79;21059;-61
2022/05/24 07:21:20;;;;;;;2.87;1.07;;;;;;;18.54;67.00;100757.13;1815219;79;21194;-60
2022/05/24 07:23:49;;;;;;;4.08;1.30;;;;;;;18.59;66.31;100764.30;1815221;78;21066;-63
2022/05/24 07:26:21;;;;;;;1.82;1.02;;;;;;;18.32;65.97;100762.66;1815205;79;21050;-63
2022/05/24 07:28:50;;;;;;;3.30;1.50;;;;;;;18.16;65.94;100765.55;1815111;79;21117;-63
2022/05/24 07:31:19;;;;;;;3.55;1.50;;;;;;;18.01;66.02;100771.48;1815273;79;21497;-63
2022/05/24 07:33:48;;;;;;;6.50;1.95;;;;;;;17.89;66.07;100772.32;1815196;79;21132;-62
2022/05/24 07:36:16;;;;;;;5.12;1.80;;;;;;;17.61;66.16;100770.19;1815221;79;21082;-62
2022/05/24 07:38:45;;;;;;;4.60;1.20;;;;;;;17.38;66.21;100770.92;1815409;79;21137;-62
2022/05/24 07:46:46;;;;;;;2.17;1.45;;;;;;;16.70;66.71;100773.98;1805487;79;21108;-62
2022/05/24 07:49:15;;;;;;;3.27;1.70;;;;;;;16.53;67.18;100775.91;1850442;77;21018;-63
2022/05/24 07:51:43;;;;;;;4.30;1.40;;;;;;;16.47;67.53;100780.73;1861587;76;21040;-60
2022/05/24 07:54:12;;;;;;;2.37;1.40;;;;;;;16.54;67.78;100776.75;1861002;77;21053;-60
2022/05/24 07:56:42;;;;;;;2.58;1.30;;;;;;;16.59;68.19;100782.14;1861153;77;21030;-57
2022/05/24 07:59:10;;;;;;;1.15;1.05;;;;;;;16.73;68.03;100779.11;1861174;77;21057;-57
2022/05/24 08:01:40;;;;;;;3.40;2.85;;;;;;;16.83;68.00;100780.72;1845919;77;21069;-55
2022/05/24 08:04:09;;;;;;;2.42;1.80;;;;;;;16.96;68.12;100782.95;1828833;78;21037;-57
2022/05/24 08:06:38;;;;;;;1.77;1.45;;;;;;;16.94;67.48;100784.86;1828662;78;21564;-57
2022/05/24 08:09:07;;;;;;;6.78;1.62;;;;;;;17.02;67.50;100783.03;1828955;78;21086;-57
2022/05/24 08:11:36;;;;;;;2.55;1.82;;;;;;;17.20;67.24;100781.81;1828690;77;21098;-57
2022/05/24 08:14:06;;;;;;;2.65;1.80;;;;;;;17.37;67.07;100780.69;1828727;78;21073;-57
2022/05/24 08:16:35;;;;;;;2.37;1.45;;;;;;;17.54;66.83;100783.58;1828816;78;21062;-57
2022/05/24 08:19:04;;;;;;;4.28;1.70;;;;;;;17.59;66.48;100781.43;1828741;78;21156;-57
2022/05/24 08:21:33;;;;;;;4.40;2.15;;;;;;;17.54;66.41;100783.58;1828788;78;21109;-57
2022/05/24 08:24:03;;;;;;;5.40;1.72;;;;;;;17.41;66.43;100785.33;1828793;78;21084;-57
2022/05/24 08:26:31;;;;;;;5.17;1.42;;;;;;;17.14;66.53;100788.88;1828839;78;21481;-57
2022/05/24 08:29:00;;;;;;;13.48;7.20;;;;;;;16.91;66.58;100795.23;1828811;78;21135;-56
2022/05/24 08:31:29;;;;;;;8.30;4.67;;;;;;;16.64;66.67;100792.98;1828728;78;21180;-54
2022/05/24 08:33:57;;;;;;;6.65;3.65;;;;;;;16.48;67.04;100796.59;1828816;78;21112;-53
2022/05/24 08:36:27;;;;;;;4.87;2.17;;;;;;;16.38;67.26;100794.16;1828809;78;21538;-53
2022/05/24 08:38:56;;;;;;;1.90;0.80;;;;;;;16.23;67.57;100799.95;1828812;78;21030;-55
2022/05/24 08:41:54;;;;;;;1.07;0.62;;;;;;;16.23;67.55;100799.95;1829048;78;21497;-55
2022/05/24 08:50:08;;;;;;;1.50;0.78;;;;;;;16.02;66.81;100804.75;1892974;76;21063;-57
2022/05/24 08:52:40;;;;;;;1.25;0.70;;;;;;;15.98;66.79;100808.07;1893175;76;21119;-57
2022/05/24 08:55:12;;;;;;;2.40;1.10;;;;;;;16.01;66.76;100807.05;1892999;76;21147;-56
2022/05/24 08:57:52;;;;;;;3.00;2.00;;;;;;;15.91;66.90;100812.04;1893000;76;21457;-57
2022/05/24 09:00:24;;;;;;;5.20;3.95;;;;;;;15.69;67.74;100805.80;1891499;76;21034;-57
2022/05/24 09:02:53;;;;;;;4.67;3.58;;;;;;;15.59;68.52;100809.48;1892829;76;21650;-57
2022/05/24 09:05:27;;;;;;;5.60;3.95;;;;;;;15.46;69.37;100811.63;1893068;76;21447;-57
2022/05/24 09:08:08;;;;;;;5.42;3.27;;;;;;;15.48;69.36;100805.76;1893151;76;21489;-57
2022/05/24 09:10:59;;;;;;;4.53;2.70;;;;;;;15.55;69.39;100809.77;1854568;77;21484;-57
2022/05/24 09:13:53;;;;;;;3.75;1.92;;;;;;;15.38;70.49;100802.31;1823852;77;21751;-57
2022/05/24 09:16:25;;;;;;;2.95;1.95;;;;;;;15.40;70.42;100805.73;1854551;77;21091;-57
2022/05/24 09:19:05;;;;;;;4.95;2.77;;;;;;;15.41;70.70;100808.75;1853331;77;21146;-57
2022/05/24 09:21:37;;;;;;;2.75;2.02;;;;;;;15.29;71.26;100810.80;1854309;77;21522;-57
2022/05/24 09:24:31;;;;;;;2.87;1.80;;;;;;;15.32;71.41;100811.94;1854373;77;21064;-57
2022/05/24 09:27:07;;;;;;;3.05;1.02;;;;;;;15.42;71.40;100819.77;1854368;77;21564;-57
2022/05/24 09:29:39;;;;;;;2.98;1.57;;;;;;;15.50;71.04;100817.14;1854503;77;21114;-57
2022/05/24 09:32:10;;;;;;;3.92;1.22;;;;;;;15.54;70.86;100821.31;1849075;77;21118;-57
2022/05/24 09:34:39;;;;;;;5.62;1.47;;;;;;;15.64;70.75;100814.53;1854339;77;21067;-57
2022/05/24 09:37:16;;;;;;;2.00;0.82;;;;;;;15.70;70.65;100812.83;1854391;77;21452;-57
2022/05/24 09:39:48;;;;;;;1.30;0.78;;;;;;;15.68;70.47;100825.34;1842756;77;21122;-57
2022/05/24 09:42:37;;;;;;;3.75;1.20;;;;;;;15.65;70.29;100824.19;1851461;77;21130;-57
2022/05/24 09:45:12;;;;;;;1.90;0.85;;;;;;;15.71;70.05;100822.48;1854441;77;21044;-57
2022/05/24 09:47:50;;;;;;;3.95;0.90;;;;;;;15.89;69.46;100827.70;1854244;76;21095;-57
2022/05/24 09:50:24;;;;;;;5.30;1.20;;;;;;;16.03;69.21;100829.05;1854488;77;21075;-57
2022/05/24 09:53:05;;;;;;;1.90;0.80;;;;;;;16.19;68.94;100828.50;1854299;77;21471;-57
2022/05/24 09:55:49;;;;;;;1.87;1.20;;;;;;;16.32;68.57;100836.58;1832757;77;21060;-57
2022/05/24 09:58:18;;;;;;;;;;;;;;;16.43;67.79;100821.75;1857221;77;21056;-57
2022/05/24 10:01:05;;;;;;;2.70;0.68;;;;;;;16.49;66.54;100839.52;1854367;77;20373;-57
2022/05/24 10:03:43;;;;;;;2.85;0.80;;;;;;;16.70;65.88;100833.80;1806979;79;21057;-57
2022/05/24 10:06:29;;;;;;;2.05;0.95;;;;;;;17.24;63.99;100820.56;1806949;79;21045;-57
2022/05/24 10:09:03;;;;;;;0.90;0.50;;;;;;;17.82;62.83;100836.29;1803659;79;21172;-56
2022/05/24 10:11:44;;;;;;;2.75;0.82;;;;;;;18.38;62.40;100836.86;1794392;80;21168;-55
2022/05/24 10:14:25;;;;;;;0.98;0.72;;;;;;;18.54;61.46;100838.45;1840826;78;21053;-55
2022/05/24 10:16:56;;;;;;;0.75;0.60;;;;;;;18.49;60.60;100837.44;1845175;78;21036;-56
2022/05/24 10:19:43;;;;;;;0.70;0.70;;;;;;;18.69;60.82;100832.02;1838141;78;21084;-56
2022/05/24 10:22:39;;;;;;;0.65;0.55;;;;;;;19.04;59.87;100841.98;1836811;78;21111;-56
2022/05/24 10:25:20;;;;;;;1.75;0.90;;;;;;;19.23;59.77;100839.66;1841905;78;21068;-56
2022/05/24 10:28:04;;;;;;;1.62;0.70;;;;;;;19.16;58.30;100839.73;1841573;78;21460;-56
2022/05/24 10:30:50;;;;;;;2.47;0.70;;;;;;;19.11;58.51;100844.58;1841858;78;21139;-56
2022/05/24 10:39:34;;;;;;;8.03;2.08;;;;;;;18.38;56.67;100857.34;1841907;78;21045;-56
2022/05/24 10:42:06;;;;;;;4.17;1.92;;;;;;;18.09;57.68;100858.41;1841907;78;21084;-56
2022/05/24 10:45:00;;;;;;;1.90;1.00;;;;;;;17.96;58.14;100867.33;1823244;78;21131;-56
2022/05/24 10:47:59;;;;;;;1.10;0.88;;;;;;;17.80;58.31;100876.80;1943996;73;21116;-55
2022/05/24 10:50:39;;;;;;;0.80;0.50;;;;;;;17.68;58.87;100893.97;1940822;74;21038;-56
2022/05/24 10:53:20;;;;;;;2.45;0.78;;;;;;;17.52;59.05;100901.27;1940773;74;21107;-56
2022/05/24 10:55:57;;;;;;;1.90;0.90;;;;;;;17.42;59.50;100936.95;1940804;74;21111;-56
2022/05/24 10:58:26;;;;;;;5.10;1.62;;;;;;;17.07;58.67;100927.24;1940824;74;21108;-56
2022/05/24 11:01:00;;;;;;;4.10;1.00;;;;;;;16.63;59.31;100946.78;1940995;74;21085;-56
2022/05/24 11:03:37;;;;;;;8.28;2.20;;;;;;;16.18;59.88;100966.25;1934563;74;21022;-56
2022/05/24 11:06:18;;;;;;;4.12;1.20;;;;;;;15.68;60.73;100968.69;1940775;74;21041;-56
2022/05/24 11:08:52;;;;;;;11.05;1.57;;;;;;;15.21;61.55;100974.83;1940989;74;21025;-56
2022/05/24 11:11:24;;;;;;;13.55;1.77;;;;;;;14.78;62.36;100978.00;1940875;74;21025;-56
2022/05/24 11:14:13;;;;;;;3.75;1.70;;;;;;;14.46;62.94;100975.69;1940875;74;21002;-56
2022/05/24 11:16:45;;;;;;;3.25;2.00;;;;;;;14.27;63.43;100980.60;1940971;74;21021;-56
2022/05/24 11:19:31;;;;;;;7.20;1.75;;;;;;;14.02;64.27;100984.09;1940977;74;21107;-56
2022/05/24 11:22:23;;;;;;;5.10;1.45;;;;;;;13.90;64.78;100989.50;1940867;74;21061;-56
2022/05/24 11:25:03;;;;;;;4.00;1.30;;;;;;;13.85;65.15;100994.16;1940801;74;21030;-56
2022/05/24 11:27:38;;;;;;;1.72;1.05;;;;;;;13.82;65.58;100995.17;1940854;74;21057;-56
2022/05/24 11:30:30;;;;;;;2.55;1.52;;;;;;;13.78;66.08;100995.41;1940841;74;21009;-56
2022/05/24 11:33:09;;;;;;;3.35;1.20;;;;;;;13.80;66.18;100993.06;1940703;74;21053;-56
2022/05/24 11:35:44;;;;;;;2.72;1.27;;;;;;;13.86;66.32;100994.55;1940571;73;21127;-56
2022/05/24 11:38:21;;;;;;;2.08;1.10;;;;;;;13.94;66.22;100990.20;1940852;74;21510;-56
2022/05/24 11:40:58;;;;;;;3.62;1.20;;;;;;;13.95;66.08;100997.23;1937702;74;21448;-56
2022/05/24 11:43:43;;;;;;;1.60;0.90;;;;;;;13.95;65.90;100998.55;1940719;74;21113;-56
2022/05/24 11:46:12;;;;;;;2.17;1.20;;;;;;;13.88;66.11;100990.89;1940185;74;21074;-56
2022/05/24 11:48:51;;;;;;;2.17;1.12;;;;;;;13.83;66.32;100997.34;1933292;74;21460;-56
2022/05/24 11:51:46;;;;;;;1.75;1.10;;;;;;;13.81;66.42;100994.77;1859641;76;21173;-55
2022/05/24 11:54:30;;;;;;;2.10;1.25;;;;;;;13.82;66.27;100990.35;1917906;75;21043;-55
2022/05/24 11:57:05;;;;;;;1.15;0.88;;;;;;;13.85;66.30;100992.38;1918074;75;21156;-56
2022/05/24 11:59:48;;;;;;;2.45;1.50;;;;;;;13.94;66.22;100991.05;1917954;75;21108;-56
2022/05/24 12:02:33;;;;;;;2.58;1.20;;;;;;;13.97;66.49;100989.59;1918052;75;21441;-56
2022/05/24 12:08:00;;;;;;;5.60;1.77;;;;;;;14.20;66.40;100999.50;1917950;75;21089;-56
2022/05/24 12:10:43;;;;;;;8.98;1.87;;;;;;;14.38;66.61;100988.45;1917828;74;21117;-56
2022/05/24 12:13:15;;;;;;;1.82;1.50;;;;;;;14.52;66.83;100990.41;1918241;75;21108;-56
2022/05/24 12:15:51;;;;;;;3.62;1.98;;;;;;;14.71;66.79;100995.63;1918145;75;21011;-56
2022/05/24 12:18:25;;;;;;;4.05;2.40;;;;;;;14.86;66.80;100996.14;1916739;75;21540;-56
2022/05/24 12:20:56;;;;;;;5.30;2.12;;;;;;;14.92;67.10;101002.47;1917834;75;21106;-56
2022/05/24 12:23:37;;;;;;;7.53;1.57;;;;;;;14.98;67.62;101001.28;1917931;75;21014;-56
2022/05/24 12:26:17;;;;;;;2.58;1.10;;;;;;;14.99;67.96;101001.17;1918037;75;21156;-56
2022/05/24 12:28:56;;;;;;;3.55;1.27;;;;;;;14.99;68.57;100993.22;1915789;75;21038;-56
2022/05/24 12:31:32;;;;;;;2.62;2.05;;;;;;;14.94;68.62;100987.77;1917987;75;21043;-56
2022/05/24 12:34:07;;;;;;;17.37;8.18;;;;;;;14.90;68.63;100989.73;1917921;75;21027;-56